createdAt,value
2022-08-03T00:00:48.197Z,2.70
2022-08-03T00:06:04.419Z,3.00
2022-08-03T00:11:06.621Z,2.90
2022-08-03T00:16:08.170Z,2.60
2022-08-03T00:21:09.549Z,2.70
2022-08-03T00:26:10.722Z,2.40
2022-08-03T00:31:13.670Z,3.00
2022-08-03T00:36:16.056Z,2.90
2022-08-03T00:41:17.224Z,2.80
2022-08-03T00:46:21.715Z,2.80
2022-08-03T00:51:23.425Z,2.70
2022-08-03T00:56:25.863Z,2.80
2022-08-03T01:01:27.101Z,2.40
2022-08-03T01:06:45.240Z,2.20
2022-08-03T01:11:59.769Z,2.70
2022-08-03T01:17:16.599Z,2.60
2022-08-03T01:22:36.333Z,2.70
2022-08-03T01:27:54.026Z,2.80
2022-08-03T01:33:01.971Z,2.70
2022-08-03T01:38:11.238Z,2.70
2022-08-03T01:44:28.093Z,2.90
2022-08-03T01:48:41.471Z,2.70
2022-08-03T01:53:44.597Z,2.90
2022-08-03T01:58:49.176Z,3.00
2022-08-03T02:04:00.431Z,3.00
2022-08-03T02:09:04.910Z,3.00
2022-08-03T02:14:07.384Z,2.80
2022-08-03T02:19:10.387Z,3.00
2022-08-03T02:24:11.941Z,3.50
2022-08-03T02:29:17.929Z,2.80
2022-08-03T02:34:21.529Z,2.50
2022-08-03T02:39:25.509Z,3.00
2022-08-03T02:44:27.771Z,2.60
2022-08-03T02:49:41.359Z,2.70
2022-08-03T02:54:54.222Z,2.50
2022-08-03T02:59:56.976Z,2.40
2022-08-03T03:05:55.047Z,2.50
2022-08-03T03:10:22.446Z,2.50
2022-08-03T03:15:30.325Z,2.60
2022-08-03T03:20:34.856Z,2.30
2022-08-03T03:25:37.540Z,2.40
2022-08-03T03:30:38.762Z,2.40
2022-08-03T03:35:42.389Z,2.90
2022-08-03T03:40:43.928Z,2.70
2022-08-03T03:45:46.630Z,2.70
2022-08-03T03:50:49.126Z,2.70
2022-08-03T03:55:58.937Z,2.70
2022-08-03T04:01:04.058Z,2.40
2022-08-03T04:06:23.997Z,2.90
2022-08-03T04:11:31.839Z,2.70
2022-08-03T04:16:43.184Z,2.90
2022-08-03T04:21:50.248Z,2.90
2022-08-03T04:26:53.936Z,2.60
2022-08-03T04:31:58.306Z,2.80
2022-08-03T04:37:04.890Z,2.70
2022-08-03T04:42:09.178Z,2.80
2022-08-03T04:47:10.706Z,3.40
2022-08-03T04:52:12.274Z,3.00
2022-08-03T04:57:21.971Z,2.80
2022-08-03T05:02:23.979Z,3.00
2022-08-03T05:07:25.454Z,2.70
2022-08-03T05:12:32.032Z,3.10
2022-08-03T05:17:33.919Z,3.10
2022-08-03T05:22:35.125Z,3.30
2022-08-03T05:27:36.305Z,3.20
2022-08-03T05:32:37.434Z,3.60
2022-08-03T05:37:38.578Z,4.10
2022-08-03T05:42:56.925Z,3.20
2022-08-03T05:47:59.298Z,2.70
2022-08-03T05:53:00.467Z,2.00
2022-08-03T05:58:03.157Z,1.80
2022-08-03T06:03:04.676Z,1.70
2022-08-03T06:08:05.856Z,1.80
2022-08-03T06:13:07.024Z,1.70
2022-08-03T06:18:08.231Z,1.80
2022-08-03T06:23:15.942Z,1.70
2022-08-03T06:28:52.813Z,1.60
2022-08-03T06:34:30.136Z,3.10
2022-08-03T06:39:01.313Z,3.30
2022-08-03T06:44:04.463Z,2.20
2022-08-03T06:49:07.157Z,1.70
2022-08-03T06:54:08.385Z,1.80
2022-08-03T06:59:09.566Z,1.50
2022-08-03T07:04:30.653Z,1.50
2022-08-03T07:09:31.992Z,1.80
2022-08-03T07:14:33.131Z,1.80
2022-08-03T07:19:35.540Z,2.00
2022-08-03T07:24:37.809Z,1.60
2022-08-03T07:29:38.948Z,1.70
2022-08-03T07:34:40.119Z,4.60
2022-08-03T07:39:41.748Z,4.00
2022-08-03T07:44:43.946Z,3.30
2022-08-03T07:49:45.557Z,2.60
2022-08-03T07:54:46.752Z,2.20
2022-08-03T07:59:49.132Z,2.60
2022-08-03T08:05:02.190Z,2.10
2022-08-03T08:10:09.141Z,1.70
2022-08-03T08:15:10.329Z,2.80
2022-08-03T08:20:16.491Z,2.60
2022-08-03T08:25:26.165Z,2.00
2022-08-03T08:30:28.708Z,1.90
2022-08-03T08:35:32.604Z,1.90
2022-08-03T08:40:36.804Z,1.90
2022-08-03T08:45:39.651Z,1.80
2022-08-03T08:50:41.342Z,1.80
2022-08-03T08:55:59.383Z,1.80
2022-08-03T09:01:03.775Z,2.10
2022-08-03T09:06:06.003Z,1.90
2022-08-03T09:11:07.377Z,1.90
2022-08-03T09:16:13.864Z,1.90
2022-08-03T09:21:35.159Z,1.80
2022-08-03T09:26:37.224Z,1.80
2022-08-03T09:31:43.565Z,1.70
2022-08-03T09:36:47.127Z,1.80
2022-08-03T09:42:03.192Z,1.70
2022-08-03T09:47:09.171Z,2.70
2022-08-03T09:52:36.806Z,2.00
2022-08-03T09:57:45.767Z,2.00
2022-08-03T10:02:49.749Z,1.80
2022-08-03T10:07:50.946Z,1.80
2022-08-03T10:12:52.187Z,2.00
2022-08-03T10:17:53.403Z,2.00
2022-08-03T10:22:55.640Z,1.80
2022-08-03T10:27:59.306Z,1.90
2022-08-03T10:33:51.060Z,2.00
2022-08-03T10:38:45.259Z,1.80
2022-08-03T10:43:58.185Z,1.80
2022-08-03T10:49:03.146Z,1.80
2022-08-03T10:54:04.332Z,2.00
2022-08-03T10:59:05.635Z,1.70
2022-08-03T11:04:18.203Z,1.90
2022-08-03T11:09:19.447Z,2.00
2022-08-03T11:14:21.441Z,1.90
2022-08-03T11:19:27.674Z,1.70
2022-08-03T11:24:53.410Z,1.80
2022-08-03T11:30:08.669Z,2.00
2022-08-03T11:35:18.006Z,1.90
2022-08-03T11:40:45.698Z,1.70
2022-08-03T11:46:05.607Z,1.90
2022-08-03T11:51:17.857Z,1.80
2022-08-03T11:56:19.680Z,2.00
2022-08-03T12:01:23.254Z,1.90
2022-08-03T12:06:24.427Z,2.00
2022-08-03T12:11:26.017Z,1.80
2022-08-03T12:16:28.016Z,1.80
2022-08-03T12:21:29.851Z,1.80
2022-08-03T12:26:58.816Z,1.90
2022-08-03T12:32:01.057Z,1.80
2022-08-03T12:37:04.745Z,1.70
2022-08-03T12:42:42.198Z,2.00
2022-08-03T12:47:50.994Z,1.70
2022-08-03T12:52:52.160Z,1.80
2022-08-03T12:57:53.266Z,1.90
2022-08-03T13:08:28.243Z,1.80
2022-08-03T13:13:48.852Z,1.90
2022-08-03T13:18:52.005Z,2.00
2022-08-03T13:23:54.205Z,1.60
2022-08-03T13:28:55.217Z,1.70
2022-08-03T13:33:56.334Z,2.00
2022-08-03T13:38:57.483Z,2.20
2022-08-03T13:44:26.165Z,1.80
2022-08-03T13:49:19.658Z,1.80
2022-08-03T13:54:20.952Z,2.00
2022-08-03T13:59:23.397Z,2.00
2022-08-03T14:04:24.521Z,1.90
2022-08-03T14:09:25.661Z,1.80
2022-08-03T14:14:26.882Z,1.70
2022-08-03T14:19:27.984Z,2.20
2022-08-03T14:24:29.444Z,2.70
2022-08-03T14:29:30.471Z,1.80
2022-08-03T14:34:31.678Z,1.80
2022-08-03T14:44:57.344Z,2.00
2022-08-03T14:50:30.261Z,1.90
2022-08-03T14:55:25.830Z,2.10
2022-08-03T15:00:39.133Z,2.20
2022-08-03T15:05:40.255Z,1.90
2022-08-03T15:10:45.445Z,2.10
2022-08-03T15:15:48.767Z,1.80
2022-08-03T15:20:50.070Z,2.00
2022-08-03T15:26:31.646Z,2.00
2022-08-03T15:31:12.425Z,1.90
2022-08-03T15:36:20.561Z,1.90
2022-08-03T15:41:21.763Z,2.60
2022-08-03T15:46:30.395Z,2.00
2022-08-03T15:51:31.535Z,1.90
2022-08-03T15:56:32.795Z,2.50
2022-08-03T16:01:34.080Z,2.20
2022-08-03T16:06:36.597Z,1.90
2022-08-03T16:11:37.896Z,2.00
2022-08-03T16:16:40.091Z,1.90
2022-08-03T16:21:48.179Z,1.80
2022-08-03T16:26:50.325Z,1.90
2022-08-03T16:31:52.521Z,2.80
2022-08-03T16:36:53.832Z,2.50
2022-08-03T16:42:01.247Z,2.90
2022-08-03T16:47:03.016Z,2.50
2022-08-03T16:52:04.412Z,3.20
2022-08-03T16:57:05.526Z,3.20
2022-08-03T17:02:10.437Z,3.40
2022-08-03T17:07:13.318Z,2.70
2022-08-03T17:12:16.066Z,2.60
2022-08-03T17:17:27.076Z,2.40
2022-08-03T17:22:33.221Z,2.50
2022-08-03T17:28:50.746Z,2.50
2022-08-03T17:32:58.232Z,2.40
2022-08-03T17:38:03.490Z,2.50
2022-08-03T17:44:14.247Z,2.70
2022-08-03T17:48:32.614Z,2.20
2022-08-03T17:53:37.834Z,2.70
2022-08-03T17:58:54.014Z,2.80
2022-08-03T18:04:02.120Z,3.00
2022-08-03T18:10:04.992Z,2.40
2022-08-03T18:14:57.259Z,2.40
2022-08-03T18:20:02.878Z,2.30
2022-08-03T18:25:09.869Z,2.40
2022-08-03T18:30:14.669Z,2.60
2022-08-03T18:35:19.038Z,2.50
2022-08-03T18:40:26.330Z,2.60
2022-08-03T18:45:57.108Z,3.10
2022-08-03T18:51:06.826Z,2.90
2022-08-03T18:56:30.833Z,3.30
2022-08-03T19:02:00.108Z,2.90
2022-08-03T19:07:07.929Z,2.80
2022-08-03T19:12:30.789Z,2.90
2022-08-03T19:17:38.412Z,3.10
2022-08-03T19:22:39.698Z,3.40
2022-08-03T19:27:48.231Z,2.90
2022-08-03T19:32:50.373Z,3.00
2022-08-03T19:37:51.758Z,3.20
2022-08-03T19:42:57.755Z,3.30
2022-08-03T19:48:09.421Z,3.30
2022-08-03T19:53:12.105Z,3.30
2022-08-03T19:58:17.739Z,3.30
2022-08-03T20:03:42.891Z,3.20
2022-08-03T20:08:44.755Z,3.30
2022-08-03T20:13:50.832Z,3.30
2022-08-03T20:18:51.937Z,3.90
2022-08-03T20:24:03.200Z,4.70
2022-08-03T20:29:42.824Z,3.90
2022-08-03T20:34:51.685Z,3.60
2022-08-03T20:39:54.473Z,3.90
2022-08-03T20:45:04.317Z,4.50
2022-08-03T20:50:07.723Z,5.40
2022-08-03T20:55:12.868Z,5.10
2022-08-03T21:00:17.902Z,4.80
2022-08-03T21:05:21.110Z,4.60
2022-08-03T21:10:33.819Z,4.70
2022-08-03T21:16:06.755Z,5.90
2022-08-03T21:21:02.845Z,5.10
2022-08-03T21:26:04.849Z,5.40
2022-08-03T21:31:07.169Z,5.10
2022-08-03T21:36:08.354Z,5.50
2022-08-03T21:41:10.022Z,5.70
2022-08-03T21:46:13.805Z,5.60
2022-08-03T21:51:18.508Z,6.00
2022-08-03T21:56:21.343Z,7.70
2022-08-03T22:01:26.867Z,7.40
2022-08-03T22:06:28.010Z,6.50
2022-08-03T22:11:29.373Z,6.70
2022-08-03T22:16:30.945Z,5.70
2022-08-03T22:21:35.748Z,5.80
2022-08-03T22:26:40.114Z,5.70
2022-08-03T22:31:58.916Z,5.40
2022-08-03T22:37:02.239Z,5.80
2022-08-03T22:42:05.052Z,5.80
2022-08-03T22:47:08.810Z,6.10
2022-08-03T22:52:11.157Z,5.30
2022-08-03T22:57:13.320Z,5.50
2022-08-03T23:02:21.106Z,5.90
2022-08-03T23:07:29.887Z,5.10
2022-08-03T23:12:34.239Z,5.10
2022-08-03T23:17:57.612Z,5.40
2022-08-03T23:23:00.466Z,6.10
2022-08-03T23:28:05.391Z,5.20
2022-08-03T23:33:08.533Z,5.10
2022-08-03T23:38:22.064Z,4.80
2022-08-03T23:43:45.274Z,4.80
2022-08-03T23:48:50.274Z,4.70
2022-08-03T23:54:01.912Z,5.10
2022-08-03T23:59:21.618Z,5.00
